Home > Products > Valid Products > MTR

000
SAUS43 KMQT 190705 COR
MTRP53
METAR KP53 190656Z AUTO 19003KT M04/M07 A3045 RMK AO2 SLP321
T10441067 PWINO FZRANO TSNO





000
SAUS43 KMQT 190700 COR
MTRP59
METAR KP59 190651Z AUTO 00000KT M04/M06 A3044 RMK AO2 SLP320
T10441061 PWINO FZRANO TSNO





000
SAUS43 KMQT 190604 COR
MTRP53
METAR KP53 190556Z AUTO 00000KT M03/M06 A3043 RMK AO2 SLP313
T10331061 10006 21039 58002 PWINO FZRANO TSNO





000
SAUS43 KMQT 190555
MTRP59
METAR KP59 190551Z AUTO 00000KT M04/M06 A3043 RMK AO2 SLP317
T10391056 10006 21039 51003 PWINO FZRANO TSNO





000
SAUS43 KMQT 190457
MTRP53
METAR KP53 190456Z AUTO 00000KT M03/M05 A3044 RMK AO2 SLP315
T10281050 400221028 PWINO FZRANO TSNO





000
SAUS43 KMQT 190456
MTRP59
METAR KP59 190451Z AUTO 00000KT M04/M06 A3042 RMK AO2 SLP316
T10391056 400221039 PWINO FZRANO TSNO





000
SAUS43 KMQT 190405 COR
MTRP53
METAR KP53 190356Z AUTO 00000KT M02/M05 A3044 RMK AO2 SLP316
T10221050 PWINO FZRANO TSNO





000
SAUS43 KMQT 190355
MTRP59
METAR KP59 190351Z AUTO 00000KT M03/M05 A3043 RMK AO2 SLP318
T10281050 PWINO FZRANO TSNO





000
SAUS43 KMQT 190305 COR
MTRP53
METAR KP53 190256Z AUTO 00000KT M02/M04 A3044 RMK AO2 SLP316
T10221044 52004 PWINO FZRANO TSNO





000
SAUS43 KMQT 190255
MTRP59
METAR KP59 190251Z AUTO 00000KT M02/M04 A3042 RMK AO2 SLP314
T10221044 53001 PWINO FZRANO TSNO





000
SAUS43 KMQT 190157
MTRP53
METAR KP53 190156Z AUTO 19003KT M01/M03 A3043 RMK AO2 SLP315
T10111033 PWINO FZRANO TSNO





000
SAUS43 KMQT 190155
MTRP59
METAR KP59 190151Z AUTO 24004KT M02/M03 A3042 RMK AO2 SLP313
T10171033 PWINO FZRANO TSNO





000
SAUS43 KMQT 190057
MTRP53
METAR KP53 190056Z AUTO 33004KT M01/M03 A3043 RMK AO2 SLP313
T10061033 PWINO FZRANO TSNO





000
SAUS43 KMQT 190056
MTRP59
METAR KP59 190051Z AUTO 00000KT M01/M03 A3041 RMK AO2 SLP310
T10111033 PWINO FZRANO TSNO





000
SAUS43 KMQT 182357
MTRP53
METAR KP53 182356Z AUTO 32008KT 01/M03 A3042 RMK AO2 SLP312
T00061028 10022 20006 53007 PWINO FZRANO TSNO





000
SAUS43 KMQT 182356
MTRP59
METAR KP59 182351Z AUTO 36004KT 01/M04 A3042 RMK AO2 SLP312
T00061039 10022 20006 53001 PWINO FZRANO TSNO





000
SAUS43 KMQT 182257
MTRP53
METAR KP53 182256Z AUTO 33010KT 01/M02 A3041 RMK AO2 SLP306
T00111022 PWINO FZRANO TSNO





000
SAUS43 KMQT 182256
MTRP59
METAR KP59 182251Z AUTO 35008KT 01/M03 A3041 RMK AO2 SLP310
T00111028 PWINO FZRANO TSNO





000
SAUS43 KMQT 182205 COR
MTRP53
METAR KP53 182156Z AUTO 31008KT 01/M03 A3041 RMK AO2 SLP306
T00111028 PWINO FZRANO TSNO





000
SAUS43 KMQT 182155
MTRP59
METAR KP59 182151Z AUTO 35009KT 02/M02 A3041 RMK AO2 SLP311
T00171022 PWINO FZRANO TSNO





000
SAUS43 KMQT 182057
MTRP53
METAR KP53 182056Z AUTO 34012KT 02/M02 A3040 RMK AO2 SLP303
T00171022 50005 PWINO FZRANO TSNO





000
SAUS43 KMQT 182056
MTRP59
METAR KP59 182051Z AUTO 35007KT 02/M02 A3042 RMK AO2 SLP311
T00171022 50004 PWINO FZRANO TSNO





000
SAUS43 KMQT 182005 COR
MTRP53
METAR KP53 181956Z AUTO 33009KT 02/M02 A3040 RMK AO2 SLP303
T00171022 PWINO FZRANO TSNO





000
SAUS43 KMQT 182000 COR
MTRP59
METAR KP59 181951Z AUTO 35009KT 02/M02 A3042 RMK AO2 SLP312
T00221017 PWINO FZRANO TSNO





000
SAUS43 KMQT 181905 COR
MTRP53
METAR KP53 181856Z AUTO 33012G18KT 02/M02 A3040 RMK AO2 SLP302
T00171022 PWINO FZRANO TSNO





000
SAUS43 KMQT 181900 COR
MTRP59
METAR KP59 181851Z AUTO 36009KT 02/M02 A3041 RMK AO2 SLP310
T00171022 PWINO FZRANO TSNO





000
SAUS43 KMQT 181757
MTRP53
METAR KP53 181756Z AUTO 33010G17KT 02/M03 A3039 RMK AO2 SLP298
T00171028 10017 20006 53014 PWINO FZRANO TSNO





000
SAUS43 KMQT 181756
MTRP59
METAR KP59 181751Z AUTO 36012KT 01/M02 A3041 RMK AO2 SLP307 60003
T00111022 10011 21011 51017 PWINO FZRANO TSNO





000
SAUS43 KMQT 181705 COR
MTRP53
METAR KP53 181656Z AUTO 33015G20KT 01/M03 A3037 RMK AO2 SLP294
T00111028 PWINO FZRANO TSNO





000
SAUS43 KMQT 181655
MTRP59
METAR KP59 181651Z AUTO 36011KT 01/M02 A3039 RMK AO2 SLP303 P0001
T00061017 PWINO FZRANO TSNO





000
SAUS43 KMQT 181558
MTRP53
METAR KP53 181556Z AUTO 34010KT 01/M03 A3036 RMK AO2 SLP288
T00111028 PWINO FZRANO TSNO





000
SAUS43 KMQT 181555
MTRP59
METAR KP59 181551Z AUTO 35012KT 00/M02 A3038 RMK AO2 SLP299 P0002
T00001022 PWINO FZRANO TSNO





000
SAUS43 KMQT 181504 COR
MTRP53
METAR KP53 181456Z AUTO 34011KT 01/M03 A3035 RMK AO2 SLP284
T00111028 53014 PWINO FZRANO TSNO





000
SAUS43 KMQT 181455
MTRP59
METAR KP59 181451Z AUTO 34010KT M01/M02 A3036 RMK AO2 SLP291
T10061022 53017 PWINO FZRANO TSNO





000
SAUS43 KMQT 181357
MTRP53
METAR KP53 181356Z AUTO 32009KT 01/M03 A3033 RMK AO2 SLP278
T00111028 PWINO FZRANO TSNO





000
SAUS43 KMQT 181355
MTRP59
METAR KP59 181351Z AUTO 35010KT 00/M02 A3034 RMK AO2 SLP286
T00001022 PWINO FZRANO TSNO





000
SAUS43 KMQT 181257
MTRP53
METAR KP53 181256Z AUTO 32009KT 01/M03 A3032 RMK AO2 SLP275
T00111033 PWINO FZRANO TSNO





000
SAUS43 KMQT 181255
MTRP59
METAR KP59 181251Z AUTO 35013KT M01/M02 A3032 RMK AO2 SLP278
T10061022 PWINO FZRANO TSNO





000
SAUS43 KMQT 181157
MTRP53
METAR KP53 181156Z AUTO 36005KT 01/M03 A3030 RMK AO2 SLP270 70007
T00061028 10017 20006 53009 PWINO FZRANO TSNO





000
SAUS43 KMQT 181156
MTRP59
METAR KP59 181151Z AUTO 36010KT M01/M03 A3030 RMK AO2 SLP274 70069
T10111028 10006 21017 53015 PWINO FZRANO TSNO





000
SAUS43 KMQT 181057
MTRP53
METAR KP53 181056Z AUTO 34004KT 01/M03 A3029 RMK AO2 SLP266
T00061033 PWINO FZRANO TSNO





000
SAUS43 KMQT 181056
MTRP59
METAR KP59 181051Z AUTO 36010KT M01/M03 A3029 RMK AO2 SLP267
T10111028 PWINO FZRANO TSNO





000
SAUS43 KMQT 180957
MTRP53
METAR KP53 180956Z AUTO 34005KT 01/M03 A3028 RMK AO2 SLP260
T00061033 PWINO FZRANO TSNO





000
SAUS43 KMQT 180956
MTRP59
METAR KP59 180951Z AUTO 36013KT M01/M02 A3027 RMK AO2 SLP262
T10061022 PWINO FZRANO TSNO





000
SAUS43 KMQT 180857
MTRP53
METAR KP53 180856Z AUTO 34010KT 01/M03 A3028 RMK AO2 SLP261
T00061028 53008 PWINO FZRANO TSNO





000
SAUS43 KMQT 180856
MTRP59
METAR KP59 180851Z AUTO 35013KT 00/M01 A3026 RMK AO2 SLP259
T00001011 51006 PWINO FZRANO TSNO





000
SAUS43 KMQT 180757
MTRP53
METAR KP53 180756Z AUTO 32008KT 02/M04 A3026 RMK AO2 SLP256
T00171039 PWINO FZRANO TSNO





000
SAUS43 KMQT 180756
MTRP59
METAR KP59 180751Z AUTO 34011KT 00/M01 A3025 RMK AO2 SLP255
T00001011 PWINO FZRANO TSNO





000
SAUS43 KMQT 180700 COR
MTRP59
METAR KP59 180651Z AUTO 34010G17KT 00/M01 A3025 RMK AO2 SLP256
T00001011 PWINO FZRANO TSNO





000
SAUS43 KMQT 180658
MTRP53
METAR KP53 180656Z AUTO 32010G16KT 02/M02 A3026 RMK AO2 SLP255
T00171022 PWINO FZRANO TSNO





000
SAUS43 KMQT 180604 COR
MTRP53
METAR KP53 180556Z AUTO 35003KT 02/M01 A3025 RMK AO2 SLP252
T00171006 10044 20017 51009 PWINO FZRANO TSNO





000
SAUS43 KMQT 180555
MTRP59
METAR KP59 180551Z AUTO 34008KT 01/M01 A3024 RMK AO2 SLP252
T00061011 10011 20000 53005 PWINO FZRANO TSNO





000
SAUS43 KMQT 180457
MTRP53
METAR KP53 180456Z AUTO 33004KT 02/M01 A3025 RMK AO2 SLP251
T00221006 400441006 PWINO FZRANO TSNO





000
SAUS43 KMQT 180455
MTRP59
METAR KP59 180451Z AUTO 34010KT 00/M01 A3024 RMK AO2 SLP252
T00001011 400111017 PWINO FZRANO TSNO





000
SAUS43 KMQT 180358
MTRP53
METAR KP53 180356Z AUTO 32006KT 04/M01 A3024 RMK AO2 SLP246
T00391006 PWINO TSNO





000
SAUS43 KMQT 180355
MTRP59
METAR KP59 180351Z AUTO VRB03KT 01/M01 A3022 RMK AO2 SLP246
T00061006 PWINO FZRANO TSNO





000
SAUS43 KMQT 180304 COR
MTRP53
METAR KP53 180256Z AUTO 26003KT 02/00 A3022 RMK AO2 SLP243 T00220000
51005 PWINO FZRANO TSNO





000
SAUS43 KMQT 180259 COR
MTRP59
METAR KP59 180251Z AUTO 32006KT 01/M01 A3023 RMK AO2 SLP247
T00061006 53009 PWINO FZRANO TSNO





000
SAUS43 KMQT 180203 COR
MTRP53
METAR KP53 180156Z AUTO 00000KT 02/00 A3022 RMK AO2 SLP243 T00220000
PWINO FZRANO TSNO





000
SAUS43 KMQT 180158 COR
MTRP59
METAR KP59 180151Z AUTO 00000KT 01/00 A3021 RMK AO2 SLP243 T00110000
PWINO FZRANO TSNO





000
SAUS43 KMQT 180058
MTRP53
METAR KP53 180056Z AUTO 00000KT 03/00 A3022 RMK AO2 SLP240 T00330000
PWINO TSNO





000
SAUS43 KMQT 180056
MTRP59
METAR KP59 180051Z AUTO VRB03KT 01/M01 A3020 RMK AO2 SLP240
T00111006 PWINO FZRANO TSNO





000
SAUS43 KMQT 180004 COR
MTRP53
METAR KP53 172356Z AUTO 22004KT 04/M01 A3021 RMK AO2 SLP238
T00441006 10044 20017 53008 PWINO TSNO





000
SAUS43 KMQT 172355
MTRP59
METAR KP59 172351Z AUTO 00000KT 01/M01 A3020 RMK AO2 SLP238 60005
T00111006 10011 20006 51009 PWINO FZRANO TSNO





000
SAUS43 KMQT 172257
MTRP53
METAR KP53 172256Z AUTO 20003KT 04/M01 A3021 RMK AO2 SLP236
T00441006 PWINO TSNO





000
SAUS43 KMQT 172256
MTRP59
METAR KP59 172251Z AUTO 24006KT 01/M01 A3020 RMK AO2 SLP236
T00111006 PWINO FZRANO TSNO





000
SAUS43 KMQT 172205 COR
MTRP53
METAR KP53 172156Z AUTO VRB03KT 04/00 A3019 RMK AO2 SLP232 T00390000
PWINO TSNO





000
SAUS43 KMQT 172200 COR
MTRP59
METAR KP59 172151Z AUTO 23005KT 01/M01 A3019 RMK AO2 SLP235
T00111006 PWINO FZRANO TSNO





000
SAUS43 KMQT 172057
MTRP53
METAR KP53 172056Z AUTO 18005KT 03/M01 A3019 RMK AO2 SLP230
T00281006 55003 PWINO TSNO





000
SAUS43 KMQT 172056
MTRP59
METAR KP59 172051Z AUTO 21007G16KT 01/M01 A3017 RMK AO2 SLP228 60005
T00061006 58003 PWINO FZRANO TSNO





000
SAUS43 KMQT 171957
MTRP53
METAR KP53 171956Z AUTO VRB05KT 03/M01 A3018 RMK AO2 SLP229
T00281006 PWINO TSNO





000
SAUS43 KMQT 171956
MTRP59
METAR KP59 171951Z AUTO 21007G16KT 01/M01 A3018 RMK AO2 SLP231 P0001
T00061011 PWINO FZRANO TSNO





000
SAUS43 KMQT 171857
MTRP53
METAR KP53 171856Z AUTO 16003KT 02/M01 A3018 RMK AO2 SLP229
T00221006 PWINO FZRANO TSNO





000
SAUS43 KMQT 171856
MTRP59
METAR KP59 171851Z AUTO 20008G23KT 01/M01 A3018 RMK AO2 SLP230 P0004
T00111011 PWINO FZRANO TSNO





000
SAUS43 KMQT 171757
MTRP53
METAR KP53 171756Z AUTO 15006KT 02/M01 A3020 RMK AO2 SLP234 P0005
60007 T00171011 10033 20006 55002 PWINO FZRANO TSNO





000
SAUS43 KMQT 171756
MTRP59
METAR KP59 171751Z AUTO 18007G19KT 01/M01 A3018 RMK AO2 SLP233 P0017
60064 T00061011 10006 21006 58011 PWINO FZRANO TSNO





000
SAUS43 KMQT 171704 COR
MTRP53
METAR KP53 171656Z AUTO 17006KT 02/M01 A3019 RMK AO2 SLP231 P0002
T00171006 PWINO FZRANO TSNO





000
SAUS43 KMQT 171655
MTRP59
METAR KP59 171651Z AUTO 17008G16KT 00/M01 A3019 RMK AO2 SLP235 P0016
T00001011 PWINO FZRANO TSNO





000
SAUS43 KMQT 171605 COR
MTRP53
METAR KP53 171556Z AUTO 14007G15KT 120V180 03/M03 A3020 RMK AO2
SLP233 T00281028 PWINO TSNO





000
SAUS43 KMQT 171558 COR
MTRP59
METAR KP59 171551Z AUTO 17008G18KT 00/M02 A3021 RMK AO2 SLP243 P0013
T00001017 PWINO FZRANO TSNO





000
SAUS43 KMQT 171505 COR
MTRP53
METAR KP53 171456Z AUTO 13008G18KT 02/M03 A3020 RMK AO2 SLP235
T00221033 56013 PWINO FZRANO TSNO





000
SAUS43 KMQT 171500 COR
MTRP59
METAR KP59 171451Z AUTO 18009G15KT 00/M02 A3022 RMK AO2 SLP244 P0009
60018 T00001017 58003 PWINO FZRANO TSNO





000
SAUS43 KMQT 171357
MTRP53
METAR KP53 171356Z AUTO 13010G17KT 110V170 02/M03 A3021 RMK AO2
SLP237 T00221033 PWINO FZRANO TSNO





000
SAUS43 KMQT 171356
MTRP59
METAR KP59 171351Z AUTO 18011G19KT 00/M02 A3022 RMK AO2 SLP246 P0006
T00001017 PWINO FZRANO TSNO





000
SAUS43 KMQT 171304 COR
MTRP53
METAR KP53 171256Z AUTO 13011G21KT 01/M03 A3023 RMK AO2 SLP244
T00111033 PWINO FZRANO TSNO





000
SAUS43 KMQT 171255
MTRP59
METAR KP59 171251Z AUTO 18008G17KT 00/M02 A3022 RMK AO2 SLP247 P0003
T00001017 PWINO FZRANO TSNO





000
SAUS43 KMQT 171205 COR
MTRP53
METAR KP53 171156Z AUTO 13012G24KT 01/M03 A3024 RMK AO2 SLP248 60002
70022 T00061033 10006 21006 58005 PWINO FZRANO TSNO





000
SAUS43 KMQT 171155
MTRP59
METAR KP59 171151Z AUTO 17011G22KT 00/M02 A3022 RMK AO2 SLP247 P0003
60018 70053 T00001022 10000 21017 56009 PWINO FZRANO TSNO





000
SAUS43 KMQT 171058
MTRP53
METAR KP53 171056Z AUTO 13011G18KT 01/M03 A3024 RMK AO2 SLP250
T00061028 PWINO FZRANO TSNO





000
SAUS43 KMQT 171055
MTRP59
METAR KP59 171051Z AUTO 16008G16KT M01/M02 A3023 RMK AO2 SLP250
P0004 T10111022 PWINO FZRANO TSNO





000
SAUS43 KMQT 171004 COR
MTRP53
METAR KP53 170956Z AUTO 13008G17KT 01/M03 A3025 RMK AO2 SLP253
T00061028 PWINO FZRANO TSNO





000
SAUS43 KMQT 170955
MTRP59
METAR KP59 170951Z AUTO 16010G20KT M01/M03 A3024 RMK AO2 SLP253
P0002 T10111028 PWINO FZRANO TSNO





000
SAUS43 KMQT 170904 COR
MTRP53
METAR KP53 170856Z AUTO VRB06G20KT 01/M03 A3025 RMK AO2 SLP254 60002
T00061028 56017 PWINO FZRANO TSNO





000
SAUS43 KMQT 170855
MTRP59
METAR KP59 170851Z AUTO 16008G18KT M01/M03 A3025 RMK AO2 SLP256
P0002 60009 T10111033 56018 PWINO FZRANO TSNO





000
SAUS43 KMQT 170804 COR
MTRP53
METAR KP53 170756Z AUTO 13010G25KT 00/M03 A3026 RMK AO2 SLP256
T00001028 PWINO FZRANO TSNO





000
SAUS43 KMQT 170755
MTRP59
METAR KP59 170751Z AUTO 16012G22KT M01/M03 A3026 RMK AO2 SLP259
P0002 T10111033 PWINO FZRANO TSNO





000
SAUS43 KMQT 170703 COR
MTRP53
METAR KP53 170656Z AUTO 13008G15KT 100V180 00/M03 A3028 RMK AO2
SLP263 P0002 T00001033 PWINO FZRANO TSNO





000
SAUS43 KMQT 170700 COR
MTRP59
METAR KP59 170651Z AUTO 16012G24KT M02/M03 A3029 RMK AO2 SLP268
P0005 T10171033 PWINO FZRANO TSNO





000
SAUS43 KMQT 170605 COR
MTRP53
METAR KP53 170556Z AUTO 13007G15KT M01/M03 A3030 RMK AO2 SLP270
P0001 60013 T10061033 11006 21011 56006 PWINO FZRANO TSNO





000
SAUS43 KMQT 170556
MTRP59
METAR KP59 170551Z AUTO 16007G18KT M02/M03 A3031 RMK AO2 SLP275
P0006 60026 T10171033 11011 21017 58004 PWINO FZRANO TSNO





000
SAUS43 KMQT 170504 COR
MTRP53
METAR KP53 170456Z AUTO VRB04KT M01/M03 A3031 RMK AO2 SLP273 P0004
T10061033 400221133 PWINO FZRANO TSNO





000
SAUS43 KMQT 170459 COR
MTRP59
METAR KP59 170451Z AUTO 15008KT M02/M03 A3031 RMK AO2 SLP278 P0005
T10171033 400111100 PWINO FZRANO TSNO





000
SAUS43 KMQT 170357
MTRP53
METAR KP53 170356Z AUTO 09005KT M01/M04 A3031 RMK AO2 SLP274 P0002
T10111039 PWINO FZRANO TSNO





000
SAUS43 KMQT 170355
MTRP59
METAR KP59 170351Z AUTO 16006KT M02/M03 A3032 RMK AO2 SLP278 P0002
T10171033 PWINO FZRANO TSNO





000
SAUS43 KMQT 170304 COR
MTRP53
METAR KP53 170256Z AUTO VRB03KT M01/M04 A3032 RMK AO2 SLP278 P0001
60006 T10111039 51013 PWINO FZRANO TSNO





000
SAUS43 KMQT 170255
MTRP59
METAR KP59 170251Z AUTO VRB05KT M01/M03 A3032 RMK AO2 SLP279 P0003
60013 T10111033 53002 PWINO FZRANO TSNO





000
SAUS43 KMQT 170158
MTRP53
METAR KP53 170156Z AUTO 10004KT M01/M03 A3032 RMK AO2 SLP277 P0003
T10061033 PWINO FZRANO TSNO





000
SAUS43 KMQT 170156
MTRP59
METAR KP59 170151Z AUTO 15006KT M02/M03 A3031 RMK AO2 SLP277 P0006
T10171028 PWINO FZRANO TSNO





000
SAUS43 KMQT 170103 COR
MTRP53
METAR KP53 170056Z AUTO 00000KT M01/M04 A3030 RMK AO2 SLP270 P0002
T10061039 PWINO FZRANO TSNO





000
SAUS43 KMQT 170059 COR
MTRP59
METAR KP59 170051Z AUTO 14004KT M02/M03 A3031 RMK AO2 SLP280 P0004
T10171033 PWINO FZRANO TSNO





000
SAUS43 KMQT 162357
MTRP53
METAR KP53 162356Z AUTO VRB03KT M01/M04 A3029 RMK AO2 SLP268 P0002
60007 T10061039 10022 21006 58008 PWINO FZRANO TSNO





000
SAUS43 KMQT 162356
MTRP59
METAR KP59 162351Z AUTO 15003KT M02/M03 A3031 RMK AO2 SLP281 P0004
60009 T10171033 10006 21017 53011 PWINO FZRANO TSNO





000
SAUS43 KMQT 162258
MTRP53
METAR KP53 162256Z AUTO 15007KT M01/M03 A3030 RMK AO2 SLP272 P0003
T10061033 PWINO FZRANO TSNO





000
SAUS43 KMQT 162256
MTRP59
METAR KP59 162251Z AUTO 16004KT M02/M04 A3030 RMK AO2 SLP278 P0003
T10171039 PWINO FZRANO TSNO





000
SAUS43 KMQT 162157
MTRP53
METAR KP53 162156Z AUTO 16004KT M01/M04 A3031 RMK AO2 SLP276 P0002
T10061039 PWINO FZRANO TSNO





000
SAUS43 KMQT 162155
MTRP59
METAR KP59 162151Z AUTO 18006KT M01/M03 A3027 RMK AO2 SLP267 P0002
T10111033 PWINO FZRANO TSNO





000
SAUS43 KMQT 162057
MTRP53
METAR KP53 162056Z AUTO 18007KT 00/M05 A3031 RMK AO2 SLP276
T00001050 58000 PWINO FZRANO TSNO





000
SAUS43 KMQT 162056
MTRP59
METAR KP59 162051Z AUTO 18005KT M01/M05 A3028 RMK AO2 SLP269
T10111050 58004 PWINO FZRANO TSNO





000
SAUS43 KMQT 162004 COR
MTRP53
METAR KP53 161956Z AUTO 18009KT 01/M04 A3032 RMK AO2 SLP279
T00061044 PWINO FZRANO TSNO





000
SAUS43 KMQT 161955
MTRP59
METAR KP59 161951Z AUTO 14006KT 00/M08 A3029 RMK AO2 SLP272
T00001083 PWINO FZRANO TSNO





000
SAUS43 KMQT 161903 COR
MTRP53
METAR KP53 161856Z AUTO 17009KT 01/M06 A3032 RMK AO2 SLP279
T00111056 PWINO FZRANO TSNO





000
SAUS43 KMQT 161859 COR
MTRP59
METAR KP59 161851Z AUTO 20005KT 00/M12 A3029 RMK AO2 SLP270
T00001117 PWINO FZRANO TSNO





000
SAUS43 KMQT 161804 COR
MTRP53
METAR KP53 161756Z AUTO 19008KT 02/M09 A3031 RMK AO2 SLP276
T00221089 10022 21111 55002 PWINO FZRANO TSNO





000
SAUS43 KMQT 161759 COR
MTRP59
METAR KP59 161751Z AUTO 15006KT 00/M14 A3029 RMK AO2 SLP272
T00001144 10011 21083 51003 PWINO FZRANO TSNO





000
SAUS43 KMQT 161704 COR
MTRP53
METAR KP53 161656Z AUTO 20008KT 02/M09 A3031 RMK AO2 SLP275
T00221094 PWINO FZRANO TSNO





000
SAUS43 KMQT 161655
MTRP59
METAR KP59 161651Z AUTO 22005KT 00/M15 A3029 RMK AO2 SLP271
T00001150 PWINO FZRANO TSNO





000
SAUS43 KMQT 161605 COR
MTRP53
METAR KP53 161556Z AUTO 17008KT 02/M09 A3032 RMK AO2 SLP278
T00171089 PWINO FZRANO TSNO





000
SAUS43 KMQT 161555
MTRP59
METAR KP59 161551Z AUTO VRB03KT 01/M14 A3030 RMK AO2 SLP274
T00061144 PWINO FZRANO TSNO





000
SAUS43 KMQT 161458
MTRP53
METAR KP53 161456Z AUTO VRB05KT 00/M08 A3032 RMK AO2 SLP277
T00001078 51011 PWINO FZRANO TSNO





000
SAUS43 KMQT 161456
MTRP59
METAR KP59 161451Z AUTO 00000KT M01/M09 A3028 RMK AO2 SLP270
T10111094 51015 PWINO FZRANO TSNO





000
SAUS43 KMQT 161357
MTRP53
METAR KP53 161356Z AUTO 20007KT M02/M08 A3031 RMK AO2 SLP275
T10171078 PWINO FZRANO TSNO





000
SAUS43 KMQT 161356
MTRP59
METAR KP59 161351Z AUTO 22003KT M02/M16 A3028 RMK AO2 SLP268
T10171156 PWINO FZRANO TSNO





000
SAUS43 KMQT 161259 COR
MTRP59
METAR KP59 161251Z AUTO 23003KT M04/M15 A3025 RMK AO2 SLP261
T10391150 PWINO FZRANO TSNO





000
SAUS43 KMQT 161258
MTRP53
METAR KP53 161256Z AUTO 19006KT M04/M09 A3030 RMK AO2 SLP273
T10441094 PWINO FZRANO TSNO





000
SAUS43 KMQT 161204 COR
MTRP53
METAR KP53 161156Z AUTO 20006KT M11/M15 A3029 RMK AO2 SLP268
T11111150 11111 21133 53021 PWINO FZRANO TSNO





000
SAUS43 KMQT 161155
MTRP59
METAR KP59 161151Z AUTO 24004KT M08/M15 A3024 RMK AO2 SLP257
T10831150 11067 21100 53020 PWINO FZRANO TSNO





000
SAUS43 KMQT 161057
MTRP53
METAR KP53 161056Z AUTO 20006KT M12/M17 A3026 RMK AO2 SLP260
T11221167 PWINO FZRANO TSNO





000
SAUS43 KMQT 161055
MTRP59
METAR KP59 161051Z AUTO 25005KT M10/M16 A3021 RMK AO2 SLP250
T11001156 PWINO FZRANO TSNO





000
SAUS43 KMQT 161004 COR
MTRP53
METAR KP53 160956Z AUTO 19007KT M13/M17 A3025 RMK AO2 SLP255
T11281167 PWINO FZRANO TSNO





000
SAUS43 KMQT 160956
MTRP59
METAR KP59 160951Z AUTO 25005KT M09/M16 A3020 RMK AO2 SLP244
T10891156 PWINO FZRANO TSNO





000
SAUS43 KMQT 160905 COR
MTRP53
METAR KP53 160856Z AUTO 19008KT M13/M16 A3022 RMK AO2 SLP247
T11281161 51006 PWINO FZRANO TSNO





000
SAUS43 KMQT 160856
MTRP59
METAR KP59 160851Z AUTO 23004KT M08/M16 A3018 RMK AO2 SLP236
T10831156 51007 PWINO FZRANO TSNO





000
SAUS43 KMQT 160757
MTRP53
METAR KP53 160756Z AUTO 19007KT M12/M16 A3022 RMK AO2 SLP246
T11221156 PWINO FZRANO TSNO





000
SAUS43 KMQT 160754
MTRP59
METAR KP59 160751Z AUTO 25005KT M08/M16 A3017 RMK AO2 SLP235
T10781161 PWINO FZRANO TSNO





    US Dept of Commerce
    National Oceanic and Atmospheric Administration
    National Weather Service
    1325 East West Highway
    Silver Spring, MD 20910
    Page Author: NWS Internet Services Team
Disclaimer
Information Quality
Credits
Glossary
Privacy Policy
Freedom of Information Act (FOIA)
About Us
Career Opportunities